グアダラハラ の空港の天気 - METARとTAF

ドン・ミゲル・イダルゴ・イ・コスティージャ国際空港 ( MMGL / GDL ) - メキシコ ハリスコ州グアダラハラ
飛行場実況気象(Metar)
観測時間08/17 05:49 CDT (08/17 10:49 UTC)
風向・風速静穏 0m/s
視程10km以上
天気現象
全天の4割程度の雲 雲底高度 2740m
気温18℃
湿度94%
気圧1022hPa
METARMMGL 171049Z 00000KT 10SM SCT090 18/17 A3018 RMK 8/030
過去の天気等 Google飛行場航空写真 Wunderground天気予報

過去48時間のMETAR

飛行場予報(TAF)
発表時間: 8/17 05:32 CDT (8/17 10:32 UTC)
予報対象時間: 17日7時 CDT ~ 18日13時 CDT
風向・風速西 3m/s
視程10km以上
全天の4割程度の雲 雲底高度 610m
全天の4割程度の雲 雲底高度 9140m
17日13時 CDT から
風向・風速東南東 5m/s
視程10km以上
全天の4割程度の雲 雲底高度 910m
全天の4割程度の雲 雲底高度 9140m
17日18時 CDT ~ 17日22時 CDT に一時的に
視程10km以上
天気現象雷雨
全天の8割程度の積乱雲 雲底高度 610m
18日1時 CDT から
風向・風速西南西 3m/s
視程10km以上
全天の4割程度の雲 雲底高度 610m
全天の8割程度の雲 雲底高度 6100m
18日1時 CDT ~ 18日5時 CDT に一時的に
視程8050m
天気現象
全天の8割程度の積乱雲 雲底高度 610m
18日13時 CDT から
風向・風速南東 5m/s
視程10km以上
全天の4割程度の雲 雲底高度 610m
全天の8割程度の雲 雲底高度 6100m
TAF MMGL 171032Z 1712/1818 26005KT P6SM SCT020 SCT300 TX28/1721Z TN17/1712Z
FM171800 12010KT P6SM SCT030 SCT300
TEMPO 1723/1803 6SM TSRA BKN020CB
FM180600 25005KT P6SM SCT020 BKN200
TEMPO 1806/1810 5SM RA BKN020CB
FM181800 13010KT P6SM SCT020 BKN200